Du har inga inställningar för hoppväder.nu

Hoppväder.nu

Senast uppdaterat 11:32

UTC-tid

2018-05-22 kl. 09:32


Sol och måne

Solen går upp 4:27 och går ner 21:56 (beräknade cirkatider)
Nästa fullmåne blir om 7 dagar (2018-05-29)

METAR

ENRY (Moss, Rygge)
(42 minuter sedan)
ENRY 220850Z 22006KT CAVOK 19/04 Q1020 NOSIG=



ESGT (Trollhättan/Vänersborg)
(12 minuter sedan)
ESGT 220920Z VRB04KT CAVOK 20/08 Q1020=



ENTO (Sandefjord)
(42 minuter sedan)
ENTO 220850Z 20003KT 130V240 CAVOK 19/08 Q1020=



ESIB (Såtenäs)
(12 minuter sedan)
ESIB 220920Z 34005KT 290V010 CAVOK 19/13 Q1020=



ESOK (Karlstad)
(12 minuter sedan)
ESOK 220920Z 11005KT 070V140 CAVOK 21/04 Q1020=



TAF

ENRY (Moss, Rygge)
(272 minuter sedan)
ENRY 220500Z 2206/2306 VRB05KT CAVOK=



ESGT (Trollhättan/Vänersborg)
(62 minuter sedan)
ESGT 220830Z 2209/2218 VRB03KT CAVOK PROB40 2212/2217 02012KT=



ENTO (Sandefjord)
(272 minuter sedan)
ENTO 220500Z 2206/2306 VRB03KT CAVOK TEMPO 2211/2216 19010KT BECMG 2302/2304 01010KT=



ESIB (Såtenäs)
(62 minuter sedan)
ESIB 220830Z 2209/2215 VRB02KT CAVOK RMK MIL=



ESOK (Karlstad)
(62 minuter sedan)
ESOK 220830Z 2209/2218 15004KT CAVOK=





Kodnycklar till TAF och METAR






LHP

(Näsinge är område I2b i Norra delen)

ÖVERSIKT FÖR OMRÅDE A UTFÄRDAD 220744
GÄLLANDE DEN 22 MAJ 2018 MELLAN 08 OCH 16 UTC


Väderöversikt

En högtrycksrygg täcker södra Sverige och medför torrt väder

Sikt under 5 kilometer eller molnbas under 1000 fot
Väntas inte förekomma under perioden.

Måttlig eller svår isbildning
08-10UTC: Hela området utom Norra delen
10-16UTC: I hela området


Måttlig eller svår turbulens
Väntas inte förekomma under perioden



PROGNOS FÖR OMRÅDE A DEN NORRA DELEN UTFÄRDAD 220744
GÄLLANDE DEN 22 MAJ 2018 MELLAN 08 OCH 16 UTC

Måttlig eller svår turbulens
08-16UTC: I hela området: Väntas inte förekomma under perioden

Måttlig eller svår isbildning
08-10UTC: Område I4c,I4d,I4e: Väntas inte förekomma under perioden

08-12UTC: Område I4b: Väntas inte förekomma under perioden

08-16UTC: Område I1a,I1b,I1c,I2a,I2b,I2c,I2d,I3a,I3b,I4a: Väntas inte förekomma under perioden

10-16UTC: Område I4c,I4d,I4e: måttlig isbildning FL070 - FL100

12-16UTC: Område I4b: måttlig isbildning FL070 - FL100


Sikt/Väder/Moln
08-16UTC: I hela området: Sikt >8km. Molnbas >2000ft.

Molnöversida
08-10UTC: Område I4c,I4d: Ingen prognos
Område I4e: Molnöversida > FL125.

08-12UTC: Område I4b: Ingen prognos

08-16UTC: Område I1a,I1b,I1c,I2a,I2b,I2c,I2d,I3a,I3b,I4a: Ingen prognos

10-16UTC: Område I4c,I4d,I4e: Molnöversida FL100.

12-16UTC: Område I4b: Molnöversida FL100.


CB/TCU Moln
08-16UTC: I hela området: Väntas inte förekomma under perioden

Nollgradersisoterm
08-10UTC: Noll grader FL070 - FL095.
10-16UTC: Noll grader FL070 - FL085.

Vind vid marken
08-10UTC: Område I2c: S-SV/0-7 knop, byar upp till 18 knop.
Område I1c: S-SV/1-9 knop, byar upp till 16 knop.
Område I2b: N-NO/0-9 knop, byar upp till 19 knop.
Område I1a: NV-N/0-10 knop, byar upp till 18 knop.
Område I3a: O/0-8 knop, byar upp till 15 knop.
Område I4d: O/0-5 knop, byar upp till 17 knop.
Område I1b: S-SV/0-8 knop, byar upp till 17 knop.
Område I4e: SO/1-4 knop, byar upp till 13 knop.
Område I3b: NO/0-8 knop, byar upp till 16 knop.
Område I4c: SO-S/0-6 knop, byar upp till 17 knop.
Område I2d: O-SO/0-8 knop, byar upp till 18 knop.
Område I4b: SO/0-7 knop, byar upp till 17 knop.
Område I4a: SO-S/0-5 knop, byar upp till 16 knop.
Område I2a: Lugnt, byar upp till 12 knop.

10-12UTC: Område I4b: SO-S/0-9 knop, byar upp till 23 knop.
Område I3a: NV-N/0-10 knop, byar upp till 18 knop.
Område I1c: V/2-10 knop, byar upp till 22 knop.
Område I2b: N/0-12 knop, byar upp till 27 knop.
Område I4e: SO/1-5 knop, byar upp till 16 knop.
Område I1a: NV/1-12 knop, byar upp till 20 knop.
Område I4d: N-NO/0-8 knop, byar upp till 18 knop.
Område I2a: O-SO/0-5 knop, byar upp till 15 knop.
Område I4c: SO-S/1-8 knop, byar upp till 20 knop.
Område I1b: SV-V/1-10 knop, byar upp till 19 knop.
Område I2d,I4a: SO-S/0-9 knop, byar upp till 24 knop.
Område I3b: N-NO/0-10 knop, byar upp till 22 knop.
Område I2c: SV-V/0-10 knop, byar upp till 23 knop.

12-14UTC: Område I1b: W-NV/4-11 knop, byar upp till 21 knop.
Område I1a: W-NV/3-10 knop, byar upp till 19 knop.
Område I2c: V/1-12 knop, byar upp till 28 knop.
Område I4a: S-SV/0-9 knop, byar upp till 23 knop.
Område I4e: Lugnt, byar upp till 15 knop.
Område I4d: N-NO/0-10 knop, byar upp till 17 knop.
Område I4b: SO-S/0-10 knop, byar upp till 23 knop.
Område I1c: W-NV/4-9 knop, byar upp till 19 knop.
Område I2a: SO/1-5 knop, byar upp till 18 knop.
Område I2b: W-NV/0-11 knop, byar upp till 29 knop.
Område I3b: NO/0-11 knop, byar upp till 24 knop.
Område I4c: SO-S/0-6 knop, byar upp till 18 knop.
Område I2d: SV-V/0-10 knop, byar upp till 24 knop.
Område I3a: N/0-8 knop, byar upp till 18 knop.

14-16UTC: Område I3b: NO/1-10 knop, byar upp till 25 knop.
Område I4b: N/0-10 knop, byar upp till 26 knop.
Område I4a: V/0-9 knop, byar upp till 21 knop.
Område I1c: NV/4-11 knop, byar upp till 19 knop.
Område I2c: W-NV/6-12 knop, byar upp till 25 knop.
Område I1b: NV/5-10 knop, byar upp till 19 knop.
Område I2b: W-NV/1-10 knop, byar upp till 27 knop.
Område I1a: V/4-9 knop, byar upp till 19 knop.
Område I4d: NO/0-7 knop, byar upp till 16 knop.
Område I2d: W-NV/0-10 knop, byar upp till 24 knop.
Område I2a: SO/0-6 knop, byar upp till 17 knop.
Område I3a: N/0-7 knop, byar upp till 15 knop.
Område I4e: Lugnt, byar upp till 12 knop.
Område I4c: S/0-8 knop, byar upp till 24 knop.


Vind och temperatur
2000ft:
08-10UTC: 130/11kt +10.
10-12UTC: 140/10kt +12.
12-14UTC: 190/15kt +12.
14-16UTC: 270/17kt +13.

FL50:
08-10UTC: 120/16kt +3.
10-12UTC: 120/13kt +3.
12-14UTC: 130/12kt +4.
14-16UTC: 130/11kt +4.

FL100:
08-10UTC: 110/12kt -5.
10-12UTC: 100/14kt -5.
12-14UTC: 80/14kt -6.
14-16UTC: 50/17kt -7.

Lägsta QNH
1017 hPa.

OBS! endast utbredd måttlig eller svår isbildning och turbulens prognostiseras i LLF.
Avsaknad av isbildning och turbulens i prognosen utesluter inte förekomst av lätt isbildning och turbulens.
För indikation på lätt isbildning, var vänlig kontrollera om prognosen för molntopp ligger högre än nollgradersisotermen.
Förekomst av TCU eller CB medför alltid en risk för måttlig eller svår isbildning och turbulens även om det inte framgår explicit av prognosen.





Spotting

Hur fungerar spotthjälpen och Vindkartan?

Markvind är ca 0-5 m/s med byar på 10 m/s.
Vind på 600 m ca 6 m/s.
Vind på 1500 m ca 8 m/s.
Vind på 3000 m ca 6 m/s.
Filip Martin flyger ca 48 m/s över marken på finalen.
Du driver ca 278 m bakåt i frifall. (370 m)
Lämplig spot är 0 sekunder eller 0 m innan gropen.
(2s eller 96 m)
För små grupper eller ensamhoppare bör man vänta 3-5 sekunder mellan grupperna.
För större grupper bör man vänta 6-8 sekunder mellan grupperna.


Vindkartan

Senast uppdaterad 11:32



All data kommer från LFV.se